Hartford, Connecticut
Traffic Map
Current Weather Conditions
Hartford, Connecticut
Clear
Clear
21°
Feels Like: 21°
Wind Chill: 21° Ceiling: Unl
Heat Index: 21° Visibility: 10mi
Dew Point: 18° Wind: 3mph
Humidity: 84% Direction: 170° (S)
Pressure: 29.9in Gusts: 0mph
Raw Report DataKHFD 051153Z 17003KT 10SM CLR 21/18 A2990 RMK AO2 SLP124 T02060178 10206 20167 53000
Traffic Incident Summary
Active as of:
Severity:
Category:
InformationThere was an issue retrieving the traffic information for this location. Please try a different location or try again shortly.
Advertisements
Track Severe Weather on mobile